createdAt,value
2023-05-16T00:01:57.919Z,99877.06
2023-05-16T00:04:26.581Z,99872.31
2023-05-16T00:06:53.384Z,99872.78
2023-05-16T00:09:20.313Z,99861.63
2023-05-16T00:11:48.477Z,99850.38
2023-05-16T00:14:15.397Z,99850.47
2023-05-16T00:16:42.310Z,99832.50
2023-05-16T00:19:10.584Z,99827.13
2023-05-16T00:21:37.336Z,99815.12
2023-05-16T00:24:04.428Z,99816.47
2023-05-16T00:26:31.214Z,99815.44
2023-05-16T00:28:57.933Z,99821.97
2023-05-16T00:31:24.675Z,99812.47
2023-05-16T00:33:51.466Z,99813.00
2023-05-16T00:36:18.086Z,99823.81
2023-05-16T00:38:44.768Z,99813.41
2023-05-16T00:41:11.519Z,99811.47
2023-05-16T00:43:39.823Z,99821.84
2023-05-16T00:46:06.599Z,99831.84
2023-05-16T00:48:33.730Z,99837.75
2023-05-16T00:51:01.462Z,99831.88
2023-05-16T00:53:28.278Z,99833.41
2023-05-16T00:55:56.640Z,99831.38
2023-05-16T00:58:23.358Z,99818.37
2023-05-16T01:00:49.990Z,99814.25
2023-05-16T01:03:17.340Z,99802.56
2023-05-16T01:05:44.275Z,99796.63
2023-05-16T01:08:10.964Z,99802.16
2023-05-16T01:10:44.431Z,99803.47
2023-05-16T01:13:17.144Z,99801.66
2023-05-16T01:15:47.087Z,99791.69
2023-05-16T01:18:16.505Z,99800.91
2023-05-16T01:21:04.103Z,99811.28
2023-05-16T01:23:43.963Z,99826.09
2023-05-16T01:26:22.686Z,99821.16
2023-05-16T01:28:50.670Z,99817.19
2023-05-16T01:31:17.550Z,99803.78
2023-05-16T01:33:44.342Z,99799.06
2023-05-16T01:36:23.399Z,99803.06
2023-05-16T01:39:00.021Z,99807.25
2023-05-16T01:41:52.829Z,99810.50
2023-05-16T01:44:23.918Z,99803.91
2023-05-16T01:46:55.425Z,99803.50
2023-05-16T01:49:28.259Z,99789.28
2023-05-16T01:51:59.213Z,99788.78
2023-05-16T01:54:26.678Z,99779.06
2023-05-16T01:56:54.319Z,99763.50
2023-05-16T01:59:22.381Z,99744.66
2023-05-16T02:01:49.460Z,99743.03
2023-05-16T02:04:16.386Z,99737.47
2023-05-16T02:06:43.768Z,99739.09
2023-05-16T02:09:10.365Z,99732.81
2023-05-16T02:11:37.080Z,99732.69
2023-05-16T02:14:03.852Z,99741.16
2023-05-16T02:16:31.748Z,99738.12
2023-05-16T02:18:58.462Z,99740.47
2023-05-16T02:21:25.777Z,99745.06
2023-05-16T02:23:52.413Z,99733.31
2023-05-16T02:26:19.117Z,99730.03
2023-05-16T02:28:46.194Z,99734.06
2023-05-16T02:31:12.908Z,99732.22
2023-05-16T02:33:39.998Z,99738.69
2023-05-16T02:36:06.929Z,99744.84
2023-05-16T02:38:33.634Z,99742.59
2023-05-16T02:41:00.527Z,99753.25
2023-05-16T02:43:27.223Z,99749.13
2023-05-16T02:45:53.889Z,99749.16
2023-05-16T02:48:20.785Z,99754.56
2023-05-16T02:50:47.560Z,99755.03
2023-05-16T02:53:14.296Z,99756.50
2023-05-16T02:55:41.110Z,99756.13
2023-05-16T02:58:08.549Z,99754.75
2023-05-16T03:00:35.175Z,99743.50
2023-05-16T03:03:02.252Z,99719.25
2023-05-16T03:05:29.200Z,99714.31
2023-05-16T03:07:56.184Z,99720.13
2023-05-16T03:10:22.916Z,99725.66
2023-05-16T03:12:49.570Z,99739.34
2023-05-16T03:15:17.217Z,99741.69
2023-05-16T03:17:43.818Z,99741.16
2023-05-16T03:20:11.627Z,99747.25
2023-05-16T03:22:38.282Z,99751.44
2023-05-16T03:25:05.339Z,99750.63
2023-05-16T03:27:32.134Z,99753.78
2023-05-16T03:29:58.839Z,99756.22
2023-05-16T03:32:25.604Z,99756.00
2023-05-16T03:34:52.292Z,99755.81
2023-05-16T03:37:18.983Z,99767.91
2023-05-16T03:39:45.682Z,99782.53
2023-05-16T03:42:12.552Z,99788.75
2023-05-16T03:44:39.811Z,99794.09
2023-05-16T03:47:06.584Z,99798.56
2023-05-16T03:49:33.298Z,99801.97
2023-05-16T03:51:59.916Z,99803.37
2023-05-16T03:54:26.675Z,99795.28
2023-05-16T03:56:53.252Z,99796.38
2023-05-16T03:59:19.989Z,99801.97
2023-05-16T04:01:47.078Z,99811.47
2023-05-16T04:04:14.349Z,99808.50
2023-05-16T04:06:41.111Z,99793.91
2023-05-16T04:09:07.855Z,99778.66
2023-05-16T04:11:34.520Z,99786.72
2023-05-16T04:14:01.936Z,99771.28
2023-05-16T04:16:28.893Z,99779.72
2023-05-16T04:18:56.537Z,99770.63
2023-05-16T04:21:23.348Z,99773.25
2023-05-16T04:23:49.977Z,99757.03
2023-05-16T04:26:16.642Z,99762.47
2023-05-16T04:28:43.392Z,99769.91
2023-05-16T04:31:10.558Z,99775.28
2023-05-16T04:33:37.485Z,99766.66
2023-05-16T04:36:06.198Z,99764.22
2023-05-16T04:38:32.953Z,99764.25
2023-05-16T04:40:59.569Z,99770.38
2023-05-16T04:43:26.483Z,99774.16
2023-05-16T04:45:54.234Z,99780.00
2023-05-16T04:48:20.887Z,99779.25
2023-05-16T04:50:47.611Z,99770.88
2023-05-16T04:53:15.264Z,99779.75
2023-05-16T04:55:41.981Z,99788.47
2023-05-16T04:58:08.582Z,99782.25
2023-05-16T05:00:35.207Z,99782.00
2023-05-16T05:03:02.013Z,99779.31
2023-05-16T05:05:29.164Z,99779.06
2023-05-16T05:07:56.087Z,99776.91
2023-05-16T05:10:22.690Z,99769.03
2023-05-16T05:12:49.320Z,99785.47
2023-05-16T05:15:15.997Z,99777.22
2023-05-16T05:17:42.878Z,99770.44
2023-05-16T05:20:10.669Z,99759.63
2023-05-16T05:22:37.336Z,99763.00
2023-05-16T05:25:04.370Z,99772.63
2023-05-16T05:27:31.553Z,99774.88
2023-05-16T05:29:58.163Z,99763.78
2023-05-16T05:32:24.958Z,99759.63
2023-05-16T05:34:52.708Z,99750.81
2023-05-16T05:37:19.422Z,99739.00
2023-05-16T05:39:46.241Z,99728.22
2023-05-16T05:42:12.959Z,99722.41
2023-05-16T05:44:39.651Z,99714.06
2023-05-16T05:47:06.584Z,99706.09
2023-05-16T05:49:33.787Z,99699.78
2023-05-16T05:52:00.451Z,99702.22
2023-05-16T05:54:27.212Z,99695.87
2023-05-16T05:56:53.881Z,99695.47
2023-05-16T05:59:20.535Z,99698.81
2023-05-16T06:01:47.309Z,99703.84
2023-05-16T06:04:14.008Z,99704.44
2023-05-16T06:06:40.824Z,99709.16
2023-05-16T06:09:07.507Z,99699.19
2023-05-16T06:11:34.238Z,99699.88
2023-05-16T06:14:00.990Z,99694.47
2023-05-16T06:16:28.007Z,99699.53
2023-05-16T06:18:54.726Z,99695.41
2023-05-16T06:21:21.548Z,99709.84
2023-05-16T06:23:48.209Z,99703.41
2023-05-16T06:26:14.952Z,99698.97
2023-05-16T06:28:41.767Z,99696.03
2023-05-16T06:31:08.652Z,99699.38
2023-05-16T06:33:35.356Z,99717.16
2023-05-16T06:36:02.027Z,99716.53
2023-05-16T06:38:28.709Z,99716.44
2023-05-16T06:40:55.562Z,99709.66
2023-05-16T06:43:22.335Z,99711.44
2023-05-16T06:45:49.015Z,99715.47
2023-05-16T06:48:16.336Z,99711.44
2023-05-16T06:50:43.111Z,99703.69
2023-05-16T06:53:12.386Z,99696.53
2023-05-16T06:55:39.840Z,99702.69
2023-05-16T06:58:06.664Z,99698.28
2023-05-16T07:00:35.589Z,99698.53
2023-05-16T07:03:05.591Z,99702.91
2023-05-16T07:05:35.434Z,99705.28
2023-05-16T07:08:02.288Z,99708.41
2023-05-16T07:10:29.350Z,99720.09
2023-05-16T07:12:57.038Z,99714.94
2023-05-16T07:15:23.889Z,99720.06
2023-05-16T07:17:51.163Z,99718.66
2023-05-16T07:20:17.981Z,99710.13
2023-05-16T07:22:44.684Z,99716.72
2023-05-16T07:25:15.668Z,99719.69
2023-05-16T07:27:45.138Z,99707.66
2023-05-16T07:30:13.261Z,99700.91
2023-05-16T07:32:40.664Z,99704.91
2023-05-16T07:35:08.003Z,99693.44
2023-05-16T07:37:34.867Z,99688.75
2023-05-16T07:40:01.676Z,99682.91
2023-05-16T07:42:28.363Z,99677.31
2023-05-16T07:44:55.032Z,99672.25
2023-05-16T07:47:21.742Z,99689.78
2023-05-16T07:49:49.320Z,99698.16
2023-05-16T07:52:16.082Z,99700.97
2023-05-16T07:54:43.795Z,99707.31
2023-05-16T07:57:10.850Z,99692.69
2023-05-16T07:59:37.786Z,99684.44
2023-05-16T08:02:04.667Z,99692.22
2023-05-16T08:04:31.396Z,99689.03
2023-05-16T08:06:58.307Z,99709.13
2023-05-16T08:09:25.056Z,99705.19
2023-05-16T08:11:52.042Z,99710.59
2023-05-16T08:14:19.161Z,99714.94
2023-05-16T08:16:45.961Z,99724.00
2023-05-16T08:19:12.814Z,99731.94
2023-05-16T08:21:39.675Z,99730.34
2023-05-16T08:24:06.863Z,99713.94
2023-05-16T08:26:33.738Z,99715.66
2023-05-16T08:29:00.473Z,99700.69
2023-05-16T08:31:27.264Z,99696.75
2023-05-16T08:33:54.114Z,99704.28
2023-05-16T08:36:21.202Z,99692.03
2023-05-16T08:38:49.808Z,99690.97
2023-05-16T08:41:16.810Z,99688.25
2023-05-16T08:43:43.605Z,99688.91
2023-05-16T08:46:11.063Z,99680.00
2023-05-16T08:48:38.963Z,99685.06
2023-05-16T08:51:08.202Z,99681.59
2023-05-16T08:53:41.297Z,99688.56
2023-05-16T08:56:08.814Z,99697.81
2023-05-16T08:58:35.954Z,99696.00
2023-05-16T09:01:07.360Z,99699.47
2023-05-16T09:03:35.613Z,99696.37
2023-05-16T09:06:03.138Z,99706.81
2023-05-16T09:08:29.942Z,99706.44
2023-05-16T09:10:56.668Z,99711.94
2023-05-16T09:13:24.252Z,99704.56
2023-05-16T09:16:09.918Z,99705.00
2023-05-16T09:18:38.038Z,99690.28
2023-05-16T09:21:05.587Z,99688.50
2023-05-16T09:23:35.117Z,99699.72
2023-05-16T09:26:04.460Z,99710.84
2023-05-16T09:28:32.014Z,99705.09
2023-05-16T09:31:00.218Z,99699.09
2023-05-16T09:33:27.654Z,99701.19
2023-05-16T09:35:58.535Z,99696.81
2023-05-16T09:38:26.737Z,99704.22
2023-05-16T09:40:53.996Z,99701.78
2023-05-16T09:43:23.194Z,99714.62
2023-05-16T09:45:49.880Z,99706.94
2023-05-16T09:48:18.367Z,99711.00
2023-05-16T09:50:55.196Z,99719.91
2023-05-16T09:53:26.915Z,99703.06
2023-05-16T09:56:09.443Z,99705.19
2023-05-16T09:58:37.028Z,99710.38
2023-05-16T10:01:04.014Z,99701.50
2023-05-16T10:03:30.932Z,99706.56
2023-05-16T10:05:57.863Z,99694.03
2023-05-16T10:08:28.319Z,99700.69
2023-05-16T10:10:56.088Z,99681.97
2023-05-16T10:13:23.817Z,99680.00
2023-05-16T10:15:52.088Z,99668.81
2023-05-16T10:18:19.878Z,99674.69
2023-05-16T10:20:49.391Z,99660.16
2023-05-16T10:23:20.113Z,99660.03
2023-05-16T10:25:48.138Z,99654.16
2023-05-16T10:28:16.572Z,99644.28
2023-05-16T10:30:44.790Z,99639.56
2023-05-16T10:33:15.955Z,99649.91
2023-05-16T10:35:43.127Z,99649.13
2023-05-16T10:38:12.194Z,99637.97
2023-05-16T10:40:39.662Z,99643.94
2023-05-16T10:43:07.753Z,99632.56
2023-05-16T10:45:35.235Z,99643.03
2023-05-16T10:48:06.741Z,99634.72
2023-05-16T10:50:40.772Z,99635.87
2023-05-16T10:53:13.449Z,99626.22
2023-05-16T10:55:40.807Z,99608.44
2023-05-16T10:58:08.306Z,99615.94
2023-05-16T11:00:35.457Z,99612.19
2023-05-16T11:03:06.797Z,99605.34
2023-05-16T11:05:34.565Z,99603.16
2023-05-16T11:08:06.691Z,99611.28
2023-05-16T11:10:33.615Z,99604.44
2023-05-16T11:13:07.601Z,99617.88
2023-05-16T11:15:34.925Z,99605.50
2023-05-16T11:18:08.844Z,99599.41
2023-05-16T11:20:40.079Z,99592.97
2023-05-16T11:23:16.902Z,99586.94
2023-05-16T11:25:46.183Z,99593.22
2023-05-16T11:28:13.999Z,99593.22
2023-05-16T11:30:44.910Z,99576.84
2023-05-16T11:33:13.233Z,99578.88
2023-05-16T11:35:40.134Z,99572.28
2023-05-16T11:38:06.816Z,99545.38
2023-05-16T11:40:35.862Z,99533.75
2023-05-16T11:43:07.093Z,99524.12
2023-05-16T11:45:34.560Z,99524.28
2023-05-16T11:48:04.851Z,99509.22
2023-05-16T11:50:32.602Z,99518.47
2023-05-16T11:52:59.775Z,99519.72
2023-05-16T11:55:41.324Z,99516.62
2023-05-16T11:58:09.609Z,99515.13
2023-05-16T12:00:36.701Z,99512.91
2023-05-16T12:03:08.365Z,99508.59
2023-05-16T12:05:35.969Z,99510.19
2023-05-16T12:08:05.298Z,99509.88
2023-05-16T12:10:34.911Z,99506.47
2023-05-16T12:13:02.453Z,99513.28
2023-05-16T12:15:29.684Z,99509.59
2023-05-16T12:17:57.270Z,99521.09
2023-05-16T12:20:26.248Z,99521.97
2023-05-16T12:22:53.025Z,99535.44
2023-05-16T12:25:30.247Z,99533.97
2023-05-16T12:27:58.724Z,99514.34
2023-05-16T12:30:26.606Z,99509.31
2023-05-16T12:32:56.057Z,99505.87
2023-05-16T12:35:23.223Z,99520.78
2023-05-16T12:37:50.727Z,99519.59
2023-05-16T12:40:17.714Z,99512.56
2023-05-16T12:42:45.461Z,99509.53
2023-05-16T12:45:17.169Z,99498.66
2023-05-16T12:47:44.147Z,99495.59
2023-05-16T12:50:12.945Z,99493.81
2023-05-16T12:52:46.646Z,99488.44
2023-05-16T12:55:13.403Z,99488.19
2023-05-16T12:57:42.025Z,99492.53
2023-05-16T13:00:08.971Z,99481.16
2023-05-16T13:02:35.645Z,99478.69
2023-05-16T13:05:02.455Z,99476.84
2023-05-16T13:07:29.141Z,99475.94
2023-05-16T13:09:55.909Z,99479.69
2023-05-16T13:12:27.069Z,99482.13
2023-05-16T13:14:54.887Z,99474.81
2023-05-16T13:17:21.577Z,99472.50
2023-05-16T13:19:49.043Z,99480.53
2023-05-16T13:22:16.021Z,99480.28
2023-05-16T13:24:42.733Z,99470.22
2023-05-16T13:27:09.586Z,99464.19
2023-05-16T13:29:36.210Z,99470.91
2023-05-16T13:32:03.134Z,99467.34
2023-05-16T13:34:30.503Z,99465.00
2023-05-16T13:36:57.196Z,99463.66
2023-05-16T13:39:24.043Z,99455.78
2023-05-16T13:41:51.180Z,99454.97
2023-05-16T13:44:18.332Z,99433.25
2023-05-16T13:46:45.277Z,99430.25
2023-05-16T13:49:12.011Z,99420.25
2023-05-16T13:51:38.712Z,99410.22
2023-05-16T13:54:05.635Z,99409.75
2023-05-16T13:56:32.311Z,99418.00
2023-05-16T13:59:05.850Z,99410.66
2023-05-16T14:01:34.394Z,99412.69
2023-05-16T14:04:01.199Z,99419.38
2023-05-16T14:06:28.540Z,99415.25
2023-05-16T14:08:55.245Z,99424.72
2023-05-16T14:11:28.824Z,99408.66
2023-05-16T14:13:56.634Z,99410.19
2023-05-16T14:16:23.368Z,99407.19
2023-05-16T14:18:50.141Z,99420.50
2023-05-16T14:21:16.884Z,99424.72
2023-05-16T14:23:43.538Z,99414.06
2023-05-16T14:26:10.211Z,99407.25
2023-05-16T14:28:37.201Z,99412.88
2023-05-16T14:31:03.943Z,99418.16
2023-05-16T14:33:32.539Z,99434.41
2023-05-16T14:35:59.237Z,99437.03
2023-05-16T14:38:26.059Z,99427.44
2023-05-16T14:40:52.783Z,99425.53
2023-05-16T14:43:19.491Z,99435.47
2023-05-16T14:45:46.197Z,99430.81
2023-05-16T14:48:13.075Z,99431.41
2023-05-16T14:50:39.746Z,99427.53
2023-05-16T14:53:06.515Z,99410.03
2023-05-16T14:55:33.253Z,99423.97
2023-05-16T14:58:00.336Z,99422.22
2023-05-16T15:00:27.771Z,99428.94
2023-05-16T15:02:54.758Z,99431.72
2023-05-16T15:05:21.600Z,99433.19
2023-05-16T15:07:48.678Z,99425.06
2023-05-16T15:10:15.469Z,99424.44
2023-05-16T15:12:43.452Z,99423.69
2023-05-16T15:15:15.680Z,99425.00
2023-05-16T15:17:43.361Z,99411.56
2023-05-16T15:20:11.202Z,99411.84
2023-05-16T15:22:39.268Z,99417.25
2023-05-16T15:25:06.266Z,99422.31
2023-05-16T15:27:33.033Z,99414.66
2023-05-16T15:30:00.878Z,99403.97
2023-05-16T15:32:27.805Z,99399.09
2023-05-16T15:34:54.548Z,99404.19
2023-05-16T15:37:21.344Z,99406.44
2023-05-16T15:39:48.174Z,99395.28
2023-05-16T15:42:15.119Z,99399.59
2023-05-16T15:44:41.803Z,99393.34
2023-05-16T15:47:09.380Z,99398.87
2023-05-16T15:49:36.053Z,99398.63
2023-05-16T15:52:02.752Z,99382.56
2023-05-16T15:54:29.876Z,99379.44
2023-05-16T15:56:56.803Z,99377.78
2023-05-16T15:59:23.499Z,99378.50
2023-05-16T16:01:50.220Z,99379.16
2023-05-16T16:04:19.362Z,99374.91
2023-05-16T16:06:47.100Z,99371.84
2023-05-16T16:09:13.755Z,99365.00
2023-05-16T16:11:40.473Z,99361.19
2023-05-16T16:14:08.798Z,99361.69
2023-05-16T16:16:37.416Z,99360.94
2023-05-16T16:19:04.299Z,99363.31
2023-05-16T16:21:31.485Z,99364.25
2023-05-16T16:23:58.260Z,99379.09
2023-05-16T16:26:25.963Z,99386.47
2023-05-16T16:28:52.722Z,99394.00
2023-05-16T16:31:19.471Z,99391.06
2023-05-16T16:33:49.300Z,99390.66
2023-05-16T16:36:16.518Z,99391.22
2023-05-16T16:38:43.154Z,99391.22
2023-05-16T16:41:10.313Z,99392.66
2023-05-16T16:43:39.918Z,99385.28
2023-05-16T16:46:09.825Z,99378.88
2023-05-16T16:48:36.660Z,99371.13
2023-05-16T16:51:03.441Z,99369.53
2023-05-16T16:53:30.227Z,99373.41
2023-05-16T16:55:56.970Z,99378.69
2023-05-16T16:58:23.753Z,99384.19
2023-05-16T17:00:50.454Z,99377.44
2023-05-16T17:03:17.369Z,99386.06
2023-05-16T17:05:45.158Z,99401.78
2023-05-16T17:08:12.342Z,99401.94
2023-05-16T17:10:39.492Z,99404.69
2023-05-16T17:13:10.539Z,99409.22
2023-05-16T17:15:37.988Z,99418.81
2023-05-16T17:18:07.732Z,99414.69
2023-05-16T17:20:34.958Z,99409.97
2023-05-16T17:23:01.827Z,99410.38
2023-05-16T17:25:29.287Z,99412.09
2023-05-16T17:27:56.407Z,99405.63
2023-05-16T17:30:23.776Z,99412.50
2023-05-16T17:32:50.526Z,99417.44
2023-05-16T17:35:17.455Z,99450.97
2023-05-16T17:37:44.189Z,99465.63
2023-05-16T17:40:16.530Z,99475.53
2023-05-16T17:42:44.010Z,99500.25
2023-05-16T17:45:11.465Z,99479.12
2023-05-16T17:47:38.188Z,99470.09
2023-05-16T17:50:05.567Z,99452.00
2023-05-16T17:52:34.303Z,99444.50
2023-05-16T17:55:01.135Z,99451.09
2023-05-16T17:57:28.158Z,99449.69
2023-05-16T17:59:55.953Z,99448.31
2023-05-16T18:02:22.742Z,99446.66
2023-05-16T18:04:49.476Z,99457.78
2023-05-16T18:07:16.178Z,99476.06
2023-05-16T18:09:42.900Z,99470.62
2023-05-16T18:12:09.735Z,99455.25
2023-05-16T18:14:36.460Z,99451.94
2023-05-16T18:17:03.868Z,99443.59
2023-05-16T18:19:30.901Z,99448.28
2023-05-16T18:21:59.776Z,99457.59
2023-05-16T18:24:26.440Z,99461.41
2023-05-16T18:26:53.147Z,99463.34
2023-05-16T18:29:19.885Z,99463.47
2023-05-16T18:31:46.600Z,99459.31
2023-05-16T18:34:13.366Z,99464.94
2023-05-16T18:36:40.043Z,99469.59
2023-05-16T18:39:07.255Z,99475.87
2023-05-16T18:41:34.159Z,99472.50
2023-05-16T18:44:00.916Z,99493.03
2023-05-16T18:46:27.603Z,99497.47
2023-05-16T18:48:57.878Z,99484.50
2023-05-16T18:51:24.949Z,99464.88
2023-05-16T18:53:51.786Z,99459.13
2023-05-16T18:56:18.458Z,99454.00
2023-05-16T18:58:45.233Z,99455.53
2023-05-16T19:01:12.003Z,99443.34
2023-05-16T19:03:38.867Z,99429.13
2023-05-16T19:06:05.589Z,99415.34
2023-05-16T19:08:46.461Z,99422.34
2023-05-16T19:11:14.598Z,99453.00
2023-05-16T19:13:41.318Z,99479.38
2023-05-16T19:16:08.136Z,99476.03
2023-05-16T19:18:35.532Z,99473.81
2023-05-16T19:21:02.593Z,99471.66
2023-05-16T19:23:29.501Z,99470.38
2023-05-16T19:25:56.511Z,99477.81
2023-05-16T19:28:24.725Z,99468.97
2023-05-16T19:30:51.556Z,99477.44
2023-05-16T19:33:18.181Z,99486.75
2023-05-16T19:35:44.812Z,99492.56
2023-05-16T19:38:11.429Z,99499.00
2023-05-16T19:40:38.237Z,99494.59
2023-05-16T19:43:05.028Z,99499.16
2023-05-16T19:45:31.718Z,99501.38
2023-05-16T19:47:59.010Z,99506.72
2023-05-16T19:50:25.800Z,99502.47
2023-05-16T19:52:52.473Z,99500.66
2023-05-16T19:55:19.221Z,99507.81
2023-05-16T19:57:46.168Z,99505.25
2023-05-16T20:00:13.291Z,99506.09
2023-05-16T20:02:40.225Z,99519.28
2023-05-16T20:05:07.282Z,99527.66
2023-05-16T20:07:34.089Z,99528.97
2023-05-16T20:10:01.064Z,99525.06
2023-05-16T20:12:27.759Z,99525.00
2023-05-16T20:14:54.441Z,99521.66
2023-05-16T20:17:21.174Z,99530.31
2023-05-16T20:19:48.070Z,99534.00
2023-05-16T20:22:14.754Z,99533.81
2023-05-16T20:24:41.402Z,99526.09
2023-05-16T20:27:08.110Z,99538.56
2023-05-16T20:29:34.786Z,99542.84
2023-05-16T20:32:03.429Z,99543.84
2023-05-16T20:34:31.646Z,99538.69
2023-05-16T20:36:58.681Z,99532.97
2023-05-16T20:39:29.181Z,99527.09
2023-05-16T20:41:55.963Z,99528.53
2023-05-16T20:44:22.652Z,99537.44
2023-05-16T20:46:49.386Z,99530.31
2023-05-16T20:49:16.179Z,99525.62
2023-05-16T20:51:43.034Z,99526.16
2023-05-16T20:54:10.824Z,99530.00
2023-05-16T20:56:37.464Z,99528.59
2023-05-16T20:59:04.334Z,99537.47
2023-05-16T21:01:31.009Z,99524.75
2023-05-16T21:03:57.803Z,99529.22
2023-05-16T21:06:24.534Z,99535.22
2023-05-16T21:08:51.192Z,99540.78
2023-05-16T21:11:17.907Z,99529.78
2023-05-16T21:13:44.526Z,99533.50
2023-05-16T21:16:12.762Z,99528.87
2023-05-16T21:18:39.642Z,99544.31
2023-05-16T21:21:06.381Z,99538.88
2023-05-16T21:23:33.082Z,99544.41
2023-05-16T21:25:59.774Z,99551.53
2023-05-16T21:28:26.448Z,99553.91
2023-05-16T21:30:53.401Z,99553.75
2023-05-16T21:33:20.178Z,99564.13
2023-05-16T21:35:47.370Z,99564.88
2023-05-16T21:38:14.046Z,99564.19
2023-05-16T21:40:40.724Z,99565.66
2023-05-16T21:43:07.345Z,99568.03
2023-05-16T21:45:33.989Z,99570.22
2023-05-16T21:48:00.827Z,99561.28
2023-05-16T21:50:27.661Z,99563.34
2023-05-16T21:52:54.325Z,99557.38
2023-05-16T21:55:20.965Z,99559.28
2023-05-16T21:57:47.930Z,99554.44
2023-05-16T22:00:15.025Z,99556.34
2023-05-16T22:02:41.742Z,99559.16
2023-05-16T22:05:08.949Z,99561.03
2023-05-16T22:07:36.151Z,99567.16
2023-05-16T22:10:03.381Z,99574.81
2023-05-16T22:12:30.024Z,99577.03
2023-05-16T22:14:56.984Z,99580.13
2023-05-16T22:17:23.711Z,99578.06
2023-05-16T22:19:50.586Z,99582.44
2023-05-16T22:22:17.504Z,99592.31
2023-05-16T22:24:44.189Z,99600.13
2023-05-16T22:27:10.919Z,99589.50
2023-05-16T22:29:41.108Z,99594.34
2023-05-16T22:32:08.516Z,99604.69
2023-05-16T22:34:35.595Z,99608.03
2023-05-16T22:37:02.298Z,99597.34
2023-05-16T22:39:29.057Z,99604.81
2023-05-16T22:41:55.842Z,99602.97
2023-05-16T22:44:22.494Z,99599.44
2023-05-16T22:46:49.300Z,99607.56
2023-05-16T22:49:16.584Z,99608.84
2023-05-16T22:51:43.295Z,99602.31
2023-05-16T22:54:10.019Z,99608.84
2023-05-16T22:56:36.760Z,99610.06
2023-05-16T22:59:03.488Z,99606.47
2023-05-16T23:01:30.221Z,99611.81
2023-05-16T23:03:56.951Z,99609.28
2023-05-16T23:06:23.663Z,99612.69
2023-05-16T23:08:50.390Z,99621.88
2023-05-16T23:11:17.136Z,99618.00
2023-05-16T23:13:43.865Z,99604.16
2023-05-16T23:16:10.671Z,99596.69
2023-05-16T23:18:37.384Z,99592.97
2023-05-16T23:21:04.202Z,99596.25
2023-05-16T23:23:30.831Z,99592.31
2023-05-16T23:25:57.429Z,99591.56
2023-05-16T23:28:24.107Z,99589.37
2023-05-16T23:30:51.417Z,99588.69
2023-05-16T23:33:18.243Z,99601.41
2023-05-16T23:35:45.092Z,99600.31
2023-05-16T23:38:11.717Z,99593.31
2023-05-16T23:40:38.570Z,99605.78
2023-05-16T23:43:05.200Z,99600.47
2023-05-16T23:45:31.855Z,99608.75
2023-05-16T23:47:58.630Z,99603.66
2023-05-16T23:50:25.381Z,99605.00
2023-05-16T23:52:52.055Z,99605.50
2023-05-16T23:55:20.551Z,99608.66
2023-05-16T23:57:47.357Z,99597.41
